Time;durP1;ratioP1;P1;durP2;ratioP2;P2;SDS_P1;SDS_P2;PMS_P1;PMS_P2;Temp;Humidity;BMP_temperature;BMP_pressure;BME280_temperature;BME280_humidity;BME280_pressure;Samples;Min_cycle;Max_cycle;Signal;HPM_P1;HPM_P2
2022/08/02 00:01:41;;;;;;;17.33;6.97;;;;;;;16.05;64.02;99214.63;5053544;28;20052;-62
2022/08/02 00:04:07;;;;;;;17.27;7.05;;;;;;;16.01;64.50;99217.06;5071396;28;20047;-62
2022/08/02 00:07:29;;;;;;;17.23;6.55;;;;;;;15.99;64.42;99232.56;5051494;28;20558;-62
2022/08/02 00:09:55;;;;;;;13.13;6.78;;;;;;;15.94;64.92;99224.56;5053539;28;20700;-61
2022/08/02 00:24:52;;;;;;;17.60;7.60;;;;;;;15.70;65.59;99224.44;5057879;28;20060;-61
2022/08/02 00:27:19;;;;;;;13.93;6.88;;;;;;;15.67;65.88;99224.97;5069912;28;20045;-62
2022/08/02 00:29:45;;;;;;;16.67;6.85;;;;;;;15.66;65.65;99221.50;5036545;28;20047;-61
2022/08/02 00:32:11;;;;;;;16.80;7.25;;;;;;;15.66;65.69;99221.50;5071315;28;20040;-61
2022/08/02 00:34:36;;;;;;;20.05;7.65;;;;;;;15.64;65.86;99218.28;5071356;28;20040;-62
2022/08/02 00:37:02;;;;;;;19.95;7.22;;;;;;;15.61;66.07;99213.50;5054420;28;20041;-61
2022/08/02 00:39:28;;;;;;;24.17;7.88;;;;;;;15.58;66.11;99210.56;5042384;28;20049;-61
2022/08/02 00:41:53;;;;;;;12.65;7.18;;;;;;;15.55;66.34;99208.44;5069996;28;20076;-61
2022/08/02 00:44:20;;;;;;;10.30;6.60;;;;;;;15.54;66.09;99215.69;5049484;28;20564;-62
2022/08/02 00:46:46;;;;;;;11.23;6.43;;;;;;;15.55;65.32;99214.59;5050873;28;20506;-61
2022/08/02 00:49:12;;;;;;;10.60;6.90;;;;;;;15.57;65.30;99211.66;5032991;28;20491;-61
2022/08/02 00:51:39;;;;;;;10.25;6.40;;;;;;;15.54;65.51;99206.88;5032908;28;20043;-62
2022/08/02 00:54:05;;;;;;;13.70;6.57;;;;;;;15.52;66.38;99207.13;5051602;28;20040;-61
2022/08/02 00:56:31;;;;;;;15.35;7.50;;;;;;;15.49;66.58;99209.56;5032791;28;20080;-62
2022/08/02 00:58:56;;;;;;;15.70;7.53;;;;;;;15.45;66.64;99210.09;5051016;28;20142;-62
2022/08/02 01:01:37;;;;;;;13.18;7.28;;;;;;;15.44;66.60;99210.34;5033187;28;20055;-62
2022/08/02 01:04:07;;;;;;;17.42;7.20;;;;;;;15.41;67.06;99210.91;5064908;28;20094;-62
2022/08/02 01:06:33;;;;;;;18.77;7.45;;;;;;;15.37;66.96;99213.34;5072187;28;20079;-62
2022/08/02 01:09:00;;;;;;;17.75;8.18;;;;;;;15.37;67.23;99215.22;5073513;28;20044;-62
2022/08/02 01:11:27;;;;;;;20.10;8.02;;;;;;;15.32;67.37;99210.66;5074941;28;20056;-62
2022/08/02 01:13:56;;;;;;;19.80;7.47;;;;;;;15.27;67.32;99208.03;5071635;28;20134;-62
2022/08/02 01:16:25;;;;;;;14.50;7.43;;;;;;;15.25;67.93;99207.50;5074548;28;20080;-61
2022/08/02 01:18:54;;;;;;;16.10;7.40;;;;;;;15.22;68.00;99205.38;5039935;28;20052;-61
2022/08/02 01:21:32;;;;;;;9.80;7.13;;;;;;;15.21;68.34;99207.25;5074498;28;20474;-62
2022/08/02 01:24:09;;;;;;;12.82;7.85;;;;;;;15.20;68.00;99204.84;5059631;28;20123;-61
2022/08/02 01:26:41;;;;;;;9.63;7.03;;;;;;;15.19;67.97;99205.94;5036597;28;20530;-61
2022/08/02 01:29:17;;;;;;;18.83;7.03;;;;;;;15.19;68.29;99201.38;5054365;28;20033;-62
2022/08/02 01:31:50;;;;;;;14.38;6.85;;;;;;;15.20;68.29;99204.84;5054452;28;20056;-61
2022/08/02 01:34:18;;;;;;;14.90;7.47;;;;;;;15.19;68.80;99197.91;5043794;28;20036;-62
2022/08/02 01:36:48;;;;;;;11.20;7.00;;;;;;;15.19;69.06;99198.72;5055999;28;20056;-62
2022/08/02 01:39:18;;;;;;;11.60;6.95;;;;;;;15.15;68.76;99205.69;5056279;28;20045;-61
2022/08/02 01:41:45;;;;;;;17.02;7.60;;;;;;;15.14;69.35;99212.06;5039581;28;20044;-63
2022/08/02 01:44:12;;;;;;;13.05;6.93;;;;;;;15.12;69.59;99214.22;5055685;28;20521;-62
2022/08/02 01:46:40;;;;;;;21.63;8.93;;;;;;;15.15;69.75;99218.22;5019497;28;20458;-61
2022/08/02 01:49:09;;;;;;;12.73;7.07;;;;;;;15.24;69.51;99210.47;5036063;28;20494;-62
2022/08/02 01:54:22;;;;;;;16.27;6.88;;;;;;;15.47;68.26;99209.84;5048167;28;20040;-62
2022/08/02 01:56:49;;;;;;;13.85;7.57;;;;;;;15.49;67.39;99212.22;5056122;28;20059;-62
2022/08/02 01:59:17;;;;;;;21.88;7.90;;;;;;;15.52;66.69;99217.00;5055786;28;20456;-62
2022/08/02 02:01:45;;;;;;;13.95;7.90;;;;;;;15.59;66.75;99221.00;5042030;28;20175;-61
2022/08/02 02:04:11;;;;;;;16.27;7.72;;;;;;;15.87;65.33;99214.19;5036047;28;20041;-62
2022/08/02 02:06:38;;;;;;;14.05;6.50;;;;;;;16.23;65.58;99221.97;5035561;28;20067;-62
2022/08/02 02:09:04;;;;;;;12.32;6.93;;;;;;;16.56;63.53;99225.75;5035665;28;20049;-62
2022/08/02 02:11:30;;;;;;;25.17;7.30;;;;;;;16.83;62.74;99224.47;5035886;28;20132;-61
2022/08/02 02:13:57;;;;;;;12.45;6.82;;;;;;;17.07;61.98;99221.81;5035999;28;20072;-62
2022/08/02 02:16:23;;;;;;;13.90;6.50;;;;;;;17.28;61.53;99219.72;5035487;28;20136;-61
2022/08/02 02:18:49;;;;;;;14.13;7.35;;;;;;;17.43;60.99;99232.13;5034606;28;20132;-62
2022/08/02 02:21:15;;;;;;;16.00;7.63;;;;;;;17.40;60.43;99209.38;5035486;28;20100;-61
2022/08/02 02:23:42;;;;;;;18.90;7.18;;;;;;;17.54;59.56;99214.06;5069832;28;20033;-62
2022/08/02 02:26:10;;;;;;;13.82;6.75;;;;;;;17.83;58.89;99219.34;5073235;28;20057;-61
2022/08/02 02:28:37;;;;;;;13.15;7.10;;;;;;;18.07;58.14;99217.38;5055235;28;20119;-62
2022/08/02 02:31:06;;;;;;;8.95;6.53;;;;;;;18.34;57.31;99216.69;5055514;28;20067;-61
2022/08/02 02:33:32;;;;;;;20.48;7.32;;;;;;;18.39;57.04;99219.31;5048332;28;20036;-61
2022/08/02 02:35:59;;;;;;;22.02;7.22;;;;;;;18.25;57.31;99221.13;5053142;28;20041;-61
2022/08/02 02:38:29;;;;;;;18.30;7.40;;;;;;;18.40;56.70;99220.09;5035216;28;20127;-62
2022/08/02 02:40:55;;;;;;;25.73;7.50;;;;;;;18.52;56.51;99215.06;5035385;28;20045;-62
2022/08/02 02:43:21;;;;;;;13.05;7.25;;;;;;;18.60;56.40;99217.09;5050007;28;20044;-61
2022/08/02 02:45:47;;;;;;;15.38;6.80;;;;;;;18.76;55.87;99220.31;5072832;28;20040;-63
2022/08/02 02:48:14;;;;;;;13.73;7.53;;;;;;;18.83;55.38;99223.44;5054878;28;20088;-61
2022/08/02 02:50:41;;;;;;;16.02;7.80;;;;;;;18.81;55.49;99220.25;5072976;28;20117;-62
2022/08/02 02:53:07;;;;;;;14.13;7.93;;;;;;;18.94;55.26;99223.25;5047702;28;20045;-61
2022/08/02 02:55:33;;;;;;;19.73;8.00;;;;;;;19.13;54.76;99223.97;5052373;28;20048;-61
2022/08/02 02:57:59;;;;;;;13.80;7.88;;;;;;;19.34;54.27;99234.31;5034935;28;20128;-61
2022/08/02 03:03:09;;;;;;;17.60;7.60;;;;;;;19.51;53.71;99229.94;5054751;28;20036;-61
2022/08/02 03:05:36;;;;;;;20.70;8.02;;;;;;;19.42;54.31;99236.31;5072761;28;20052;-62
2022/08/02 03:08:01;;;;;;;18.88;9.02;;;;;;;19.42;54.18;99225.56;5070463;28;20563;-62
2022/08/02 03:10:27;;;;;;;26.13;9.25;;;;;;;19.41;54.66;99226.66;5072465;28;20052;-61
2022/08/02 03:12:53;;;;;;;30.73;9.43;;;;;;;19.31;54.85;99227.66;5048132;28;20103;-61
2022/08/02 03:15:20;;;;;;;21.27;8.38;;;;;;;19.28;54.87;99228.25;5034514;28;20064;-62
2022/08/02 03:17:46;;;;;;;18.92;8.20;;;;;;;19.46;54.56;99226.56;5018136;28;20080;-61
2022/08/02 03:20:15;;;;;;;22.42;8.20;;;;;;;19.72;54.08;99222.25;5051352;28;20119;-62
2022/08/02 03:22:42;;;;;;;23.08;8.35;;;;;;;19.93;53.75;99228.00;5034575;28;20132;-62
2022/08/02 03:25:08;;;;;;;23.95;8.63;;;;;;;20.19;52.86;99228.22;5052211;28;20041;-62
2022/08/02 03:27:34;;;;;;;22.13;8.20;;;;;;;20.46;52.25;99228.41;5034318;28;20403;-62
2022/08/02 03:30:00;;;;;;;21.58;8.45;;;;;;;20.64;52.09;99239.00;5051997;28;20076;-62
2022/08/02 03:32:25;;;;;;;19.33;8.93;;;;;;;20.80;51.70;99227.88;5055219;28;20041;-61
2022/08/02 03:34:51;;;;;;;34.13;9.48;;;;;;;20.91;51.63;99234.56;5054482;28;20028;-61
2022/08/02 03:37:17;;;;;;;20.85;9.05;;;;;;;21.00;51.05;99235.41;5053652;28;20107;-62
2022/08/02 03:39:43;;;;;;;19.10;8.70;;;;;;;21.14;51.18;99235.31;5034420;28;20643;-61
2022/08/02 03:42:09;;;;;;;26.92;9.30;;;;;;;21.36;50.90;99234.47;5063766;28;20153;-62
2022/08/02 03:44:38;;;;;;;22.30;8.77;;;;;;;21.58;50.46;99230.88;5071712;28;20524;-61
2022/08/02 03:47:05;;;;;;;19.70;8.25;;;;;;;21.86;49.92;99234.09;5071840;28;20087;-62
2022/08/02 03:49:31;;;;;;;30.02;9.25;;;;;;;22.04;49.58;99229.50;5053889;28;20041;-62
2022/08/02 03:51:57;;;;;;;24.05;9.07;;;;;;;22.29;48.65;99230.63;5070587;28;20090;-61
2022/08/02 03:54:23;;;;;;;20.00;9.00;;;;;;;22.44;48.47;99232.03;5013713;28;20045;-62
2022/08/02 03:56:48;;;;;;;25.55;9.13;;;;;;;22.58;48.04;99234.56;5031596;28;20046;-62
2022/08/02 03:59:14;;;;;;;23.83;9.10;;;;;;;22.60;48.01;99237.75;5014052;28;20287;-62
2022/08/02 04:01:40;;;;;;;21.05;8.75;;;;;;;22.63;47.96;99239.81;5050068;28;20202;-63
2022/08/02 04:04:07;;;;;;;15.73;8.40;;;;;;;22.79;48.00;99232.78;5071353;28;20457;-63
2022/08/02 04:06:33;;;;;;;20.35;9.20;;;;;;;22.92;46.65;99236.41;5071459;28;20044;-63
2022/08/02 04:08:59;;;;;;;17.40;8.40;;;;;;;23.12;47.18;99237.66;5055383;28;20091;-62
2022/08/02 04:11:30;;;;;;;18.63;8.77;;;;;;;23.32;46.50;99241.50;5051623;28;20056;-62
2022/08/02 04:14:06;;;;;;;18.52;9.00;;;;;;;23.44;46.42;99230.81;5036888;28;20045;-62
2022/08/02 04:16:51;;;;;;;13.52;8.63;;;;;;;23.59;45.67;99240.28;5071027;28;20477;-61
2022/08/02 04:19:46;;;;;;;23.63;8.75;;;;;;;23.79;45.54;99236.03;5053326;28;20040;-62
2022/08/02 04:22:18;;;;;;;12.02;7.68;;;;;;;23.87;45.16;99245.22;5070072;28;20059;-63
2022/08/02 04:24:50;;;;;;;15.80;7.75;;;;;;;24.12;44.26;99246.13;5053079;28;20048;-63
2022/08/02 04:27:16;;;;;;;13.65;7.18;;;;;;;24.34;43.41;99242.31;5071343;28;20492;-62
2022/08/02 04:29:42;;;;;;;10.50;6.38;;;;;;;24.38;42.36;99241.28;5049412;28;20071;-63
2022/08/02 04:32:08;;;;;;;12.57;6.78;;;;;;;24.50;42.11;99240.56;5069519;28;20044;-62
2022/08/02 04:34:34;;;;;;;12.43;6.28;;;;;;;24.59;41.78;99235.06;5071231;28;20055;-62
2022/08/02 04:36:59;;;;;;;11.65;6.05;;;;;;;24.69;41.80;99240.88;5056880;28;20071;-63
2022/08/02 04:39:26;;;;;;;12.00;6.00;;;;;;;24.78;41.07;99238.06;5036584;28;20052;-63
2022/08/02 04:41:52;;;;;;;9.60;6.03;;;;;;;24.81;41.51;99250.94;5030748;28;20513;-67
2022/08/02 04:44:17;;;;;;;12.18;5.93;;;;;;;24.90;40.98;99240.00;5013407;28;20037;-63
2022/08/02 04:46:44;;;;;;;10.45;5.90;;;;;;;25.00;40.71;99234.16;5033988;28;20057;-63
2022/08/02 04:49:10;;;;;;;10.85;5.57;;;;;;;24.97;40.51;99240.22;5033117;28;20048;-63
2022/08/02 04:51:41;;;;;;;12.80;5.53;;;;;;;24.99;41.39;99231.78;5050792;28;20148;-63
2022/08/02 04:54:08;;;;;;;12.73;5.72;;;;;;;25.05;41.22;99235.84;5050756;28;20041;-63
2022/08/02 04:56:34;;;;;;;11.88;6.00;;;;;;;25.14;40.56;99242.00;5062094;28;20037;-62
2022/08/02 04:59:00;;;;;;;10.20;5.50;;;;;;;25.17;40.71;99235.09;5068681;28;20037;-62
2022/08/02 05:01:26;;;;;;;12.73;5.30;;;;;;;25.13;40.36;99240.38;5070293;28;20051;-64
2022/08/02 05:03:51;;;;;;;11.43;5.55;;;;;;;24.99;41.12;99237.97;5063463;28;20041;-62
2022/08/02 05:06:18;;;;;;;10.02;5.00;;;;;;;24.82;40.91;99238.19;5068398;28;20041;-62
2022/08/02 05:08:45;;;;;;;10.23;5.18;;;;;;;24.70;41.52;99237.03;5048707;28;20102;-63
2022/08/02 05:11:11;;;;;;;11.02;5.15;;;;;;;24.68;41.38;99241.22;5068116;28;20061;-63
2022/08/02 05:13:37;;;;;;;11.15;5.70;;;;;;;24.65;41.63;99244.59;5068089;28;20537;-63
2022/08/02 05:16:03;;;;;;;12.75;6.50;;;;;;;24.64;42.26;99241.06;5050838;28;20169;-62
2022/08/02 05:18:29;;;;;;;9.70;5.60;;;;;;;24.74;41.32;99229.03;5066605;28;20506;-63
2022/08/02 05:20:55;;;;;;;8.20;5.28;;;;;;;24.79;40.86;99239.63;5047350;28;20047;-64
2022/08/02 05:23:21;;;;;;;12.23;5.45;;;;;;;24.85;41.77;99229.38;5068443;28;20045;-62
2022/08/02 05:25:47;;;;;;;9.75;5.60;;;;;;;24.85;41.53;99237.50;5035360;28;20048;-65
2022/08/02 05:28:12;;;;;;;10.30;5.28;;;;;;;24.75;41.98;99235.25;5029289;28;20041;-63
2022/08/02 05:30:39;;;;;;;10.02;5.57;;;;;;;24.69;42.02;99235.44;5050072;28;20091;-62
2022/08/02 05:33:05;;;;;;;10.45;5.47;;;;;;;24.74;41.42;99233.63;5032343;28;20045;-63
2022/08/02 05:35:30;;;;;;;6.65;4.88;;;;;;;24.75;41.18;99233.31;5067021;28;20056;-62
2022/08/02 05:37:56;;;;;;;25.95;5.63;;;;;;;24.79;41.53;99228.00;5070411;28;20041;-63
2022/08/02 05:40:22;;;;;;;15.38;5.68;;;;;;;24.88;41.76;99226.81;5059022;28;20521;-63
2022/08/02 05:42:47;;;;;;;13.52;5.30;;;;;;;24.98;42.02;99231.00;5039111;28;20045;-63
2022/08/02 05:45:13;;;;;;;13.05;5.13;;;;;;;25.05;41.82;99233.13;5051322;28;20467;-63
2022/08/02 05:47:39;;;;;;;13.30;5.38;;;;;;;25.11;41.25;99226.38;5049729;28;20533;-64
2022/08/02 05:50:07;;;;;;;8.55;4.85;;;;;;;25.11;41.31;99219.00;5049907;28;20444;-64
2022/08/02 05:52:49;;;;;;;8.20;4.60;;;;;;;25.11;40.91;99213.59;5040681;28;20041;-63
2022/08/02 05:55:25;;;;;;;10.07;4.95;;;;;;;24.98;40.36;99216.66;5008157;28;20511;-62
2022/08/02 05:58:03;;;;;;;12.00;4.90;;;;;;;24.98;40.28;99213.94;5011955;28;20049;-64
2022/08/02 06:00:35;;;;;;;8.60;4.15;;;;;;;24.93;39.63;99215.72;5012922;28;20104;-63
2022/08/02 06:03:22;;;;;;;8.20;4.38;;;;;;;25.02;39.79;99209.41;4993920;28;20530;-63
2022/08/02 06:05:57;;;;;;;9.77;3.92;;;;;;;25.00;40.13;99212.47;5029331;28;20049;-64
2022/08/02 06:08:36;;;;;;;12.65;4.68;;;;;;;25.13;40.51;99211.38;5031312;28;20093;-60
2022/08/02 06:11:04;;;;;;;5.85;4.05;;;;;;;25.21;40.29;99208.88;5029389;28;20510;-63
2022/08/02 06:13:30;;;;;;;11.93;4.47;;;;;;;25.19;40.18;99206.50;5030284;28;20041;-63
2022/08/02 06:15:58;;;;;;;6.28;4.10;;;;;;;25.02;39.85;99209.41;5012629;28;20165;-63
2022/08/02 06:18:26;;;;;;;7.43;4.10;;;;;;;24.91;40.32;99209.88;5031914;28;20041;-63
2022/08/02 06:20:52;;;;;;;10.85;4.10;;;;;;;24.84;40.38;99211.53;5029264;28;20033;-63
2022/08/02 06:23:21;;;;;;;7.18;4.07;;;;;;;24.82;40.85;99211.84;5030575;28;20556;-63
2022/08/02 06:25:49;;;;;;;10.60;3.83;;;;;;;24.78;40.84;99210.16;5012669;28;20566;-63
2022/08/02 06:28:15;;;;;;;8.52;3.97;;;;;;;24.82;40.24;99206.44;5010266;28;20053;-62
2022/08/02 06:30:43;;;;;;;7.03;3.97;;;;;;;24.97;40.00;99213.13;4994153;28;20042;-62
2022/08/02 06:33:09;;;;;;;9.77;4.70;;;;;;;25.18;39.43;99212.25;5011868;28;20112;-62
2022/08/02 06:35:45;;;;;;;10.10;3.97;;;;;;;25.25;38.88;99216.00;5016945;28;20308;-63
2022/08/02 06:38:18;;;;;;;7.50;3.47;;;;;;;25.23;39.08;99212.03;5011698;28;20037;-62
2022/08/02 06:41:00;;;;;;;9.05;3.63;;;;;;;25.33;38.47;99211.59;5012875;28;20087;-62
2022/08/02 06:43:37;;;;;;;7.20;4.18;;;;;;;25.52;38.15;99209.09;4995670;28;20072;-62
2022/08/02 06:46:03;;;;;;;5.15;3.63;;;;;;;25.66;37.70;99211.44;5013974;28;20044;-62
2022/08/02 06:48:30;;;;;;;9.52;4.15;;;;;;;25.73;37.55;99210.84;5068254;28;20045;-63
2022/08/02 06:50:55;;;;;;;6.97;3.60;;;;;;;25.74;37.69;99207.03;5052709;28;20040;-61
2022/08/02 06:53:21;;;;;;;10.57;3.75;;;;;;;25.78;37.38;99214.13;5065013;28;20110;-62
2022/08/02 06:55:47;;;;;;;6.45;3.60;;;;;;;25.63;38.09;99208.63;5068983;28;20056;-64
2022/08/02 06:58:13;;;;;;;5.50;3.40;;;;;;;25.32;38.25;99205.38;5060351;28;20383;-59
2022/08/02 07:00:40;;;;;;;6.40;4.40;;;;;;;25.12;38.45;99203.56;5035610;28;20083;-61
2022/08/02 07:03:06;;;;;;;8.27;3.67;;;;;;;25.08;39.21;99200.72;4999794;28;20046;-62
2022/08/02 07:05:32;;;;;;;6.28;3.53;;;;;;;24.98;39.66;99193.03;5056051;28;20626;-63
2022/08/02 07:07:57;;;;;;;4.95;3.83;;;;;;;24.83;39.12;99197.19;5027676;28;20041;-63
2022/08/02 07:10:23;;;;;;;7.55;4.05;;;;;;;24.88;40.28;99196.16;5028720;28;20033;-63
2022/08/02 07:12:49;;;;;;;7.22;3.40;;;;;;;25.05;38.72;99193.25;5029620;28;20541;-63
2022/08/02 07:15:15;;;;;;;9.88;3.95;;;;;;;25.06;39.72;99191.31;5047812;28;20045;-62
2022/08/02 07:17:41;;;;;;;7.13;4.35;;;;;;;25.05;38.66;99189.75;5050822;28;20076;-62
2022/08/02 07:20:08;;;;;;;7.88;3.97;;;;;;;25.10;39.28;99186.81;5032598;28;20049;-62
2022/08/02 07:22:34;;;;;;;8.35;3.85;;;;;;;25.25;39.84;99186.16;5036257;28;20418;-61
2022/08/02 07:25:00;;;;;;;7.05;3.60;;;;;;;25.56;38.37;99196.44;5071096;28;20040;-62
2022/08/02 07:27:26;;;;;;;6.22;3.65;;;;;;;25.85;38.33;99189.13;5056938;28;20046;-62
2022/08/02 07:29:52;;;;;;;3.80;3.13;;;;;;;25.87;39.57;99189.59;5055179;28;20043;-63
2022/08/02 07:32:21;;;;;;;4.95;3.63;;;;;;;25.86;38.62;99195.38;5069774;28;20044;-62
2022/08/02 07:34:47;;;;;;;7.25;3.50;;;;;;;25.91;38.73;99193.19;5037963;28;20259;-60
2022/08/02 07:37:13;;;;;;;7.18;3.33;;;;;;;26.02;37.54;99188.06;5050500;28;20049;-62
2022/08/02 07:39:39;;;;;;;5.82;3.45;;;;;;;26.06;37.61;99191.69;5051319;28;20102;-63
2022/08/02 07:42:04;;;;;;;7.10;3.38;;;;;;;25.96;37.60;99190.22;5051495;28;20055;-63
2022/08/02 07:44:33;;;;;;;6.90;3.20;;;;;;;25.83;37.67;99189.50;5050354;28;20489;-62
2022/08/02 07:47:00;;;;;;;6.53;3.30;;;;;;;25.98;37.32;99185.25;5051286;28;20505;-63
2022/08/02 07:49:26;;;;;;;6.30;3.17;;;;;;;26.30;36.62;99174.50;5050977;28;20091;-63
2022/08/02 07:51:52;;;;;;;4.65;3.00;;;;;;;26.40;35.86;99176.69;5033424;28;20053;-63
2022/08/02 07:54:18;;;;;;;6.63;3.17;;;;;;;26.38;36.49;99168.09;5051295;28;20037;-63
2022/08/02 07:56:43;;;;;;;9.63;3.05;;;;;;;26.31;36.30;99180.72;5051365;28;20041;-63
2022/08/02 07:59:09;;;;;;;8.40;3.25;;;;;;;26.20;36.15;99181.19;5033502;28;20047;-63
2022/08/02 08:01:36;;;;;;;5.05;3.28;;;;;;;26.28;35.52;99174.81;5051386;28;20076;-63
2022/08/02 08:04:02;;;;;;;6.80;3.10;;;;;;;26.26;35.68;99176.31;5050778;28;20040;-62
2022/08/02 08:06:29;;;;;;;6.43;3.42;;;;;;;26.22;35.87;99175.44;5050999;28;20037;-63
2022/08/02 08:08:56;;;;;;;6.65;3.08;;;;;;;26.21;35.69;99185.50;5051224;28;20033;-63
2022/08/02 08:11:21;;;;;;;7.00;3.00;;;;;;;26.21;34.77;99173.84;5032925;28;20041;-63
2022/08/02 08:13:47;;;;;;;6.10;2.83;;;;;;;26.18;34.42;99185.41;5051225;28;20098;-64
2022/08/02 08:16:13;;;;;;;4.85;2.85;;;;;;;26.33;34.80;99184.66;5050252;28;20049;-63
2022/08/02 08:18:38;;;;;;;5.32;3.00;;;;;;;26.64;34.00;99189.38;5033011;28;20040;-63
2022/08/02 08:21:05;;;;;;;4.35;3.08;;;;;;;26.79;34.88;99181.56;5051139;28;20044;-63
2022/08/02 08:23:30;;;;;;;2.75;2.55;;;;;;;26.93;33.96;99168.34;5051027;28;20033;-63
2022/08/02 08:25:56;;;;;;;5.47;2.50;;;;;;;27.03;31.69;99178.69;5050725;28;20514;-63
2022/08/02 08:28:22;;;;;;;8.00;2.83;;;;;;;27.01;31.27;99172.81;5050843;28;20169;-62
2022/08/02 08:30:48;;;;;;;8.93;2.97;;;;;;;27.02;31.03;99179.03;5033091;28;20044;-62
2022/08/02 08:33:13;;;;;;;4.43;2.70;;;;;;;26.91;31.63;99181.47;5050904;28;20120;-62
2022/08/02 08:35:39;;;;;;;6.68;3.20;;;;;;;26.86;31.46;99176.34;5050396;28;20045;-63
2022/08/02 08:38:05;;;;;;;7.22;3.03;;;;;;;26.87;31.97;99175.97;5050779;28;20041;-62
2022/08/02 08:40:31;;;;;;;5.72;2.90;;;;;;;26.73;31.85;99176.38;5050852;28;20040;-63
2022/08/02 08:42:57;;;;;;;9.70;3.45;;;;;;;26.62;32.09;99175.34;5051060;28;20418;-63
2022/08/02 08:45:22;;;;;;;6.85;2.88;;;;;;;26.29;32.93;99176.38;5050410;28;20045;-63
2022/08/02 08:47:57;;;;;;;3.10;2.45;;;;;;;26.09;33.03;99171.16;5032427;28;20065;-64
2022/08/02 08:50:25;;;;;;;3.42;2.72;;;;;;;26.04;33.34;99164.88;5049447;28;20385;-63
2022/08/02 08:53:02;;;;;;;3.80;2.47;;;;;;;26.19;33.08;99167.97;5050946;28;20383;-63
2022/08/02 08:55:29;;;;;;;6.85;2.92;;;;;;;26.24;33.71;99160.38;5050419;28;20043;-63
2022/08/02 08:57:57;;;;;;;8.65;3.00;;;;;;;26.33;32.88;99173.00;5050839;28;20042;-62
2022/08/02 09:00:22;;;;;;;9.40;3.17;;;;;;;26.33;33.24;99175.72;5050297;28;20036;-63
2022/08/02 09:02:48;;;;;;;7.43;2.92;;;;;;;26.42;32.76;99173.63;5032676;28;20395;-64
2022/08/02 09:05:15;;;;;;;4.13;3.08;;;;;;;26.32;32.71;99174.13;5050732;28;20560;-64
2022/08/02 09:07:43;;;;;;;3.65;2.92;;;;;;;26.15;33.45;99165.16;5050846;28;20470;-64
2022/08/02 09:10:48;;;;;;;6.60;3.00;;;;;;;26.14;32.96;99162.78;5032624;28;20072;-63
2022/08/02 09:13:19;;;;;;;5.40;3.15;;;;;;;26.29;32.69;99162.81;4953148;28;20501;-62
2022/08/02 09:16:11;;;;;;;4.57;3.30;;;;;;;26.31;33.22;99165.19;4969047;28;20051;-63
2022/08/02 09:18:38;;;;;;;5.25;3.40;;;;;;;26.41;33.26;99161.94;5024168;28;20065;-63
2022/08/02 09:21:08;;;;;;;4.95;3.53;;;;;;;26.35;34.19;99166.06;5050204;28;20056;-63
2022/08/02 09:23:36;;;;;;;10.32;3.70;;;;;;;26.27;33.60;99158.88;5050024;28;20052;-64
2022/08/02 09:26:04;;;;;;;7.93;4.00;;;;;;;26.26;33.80;99155.34;5050180;28;20045;-63
2022/08/02 09:28:32;;;;;;;6.10;3.70;;;;;;;26.29;33.67;99164.75;5052772;28;20033;-64
2022/08/02 09:31:08;;;;;;;5.18;3.80;;;;;;;26.23;34.30;99160.69;5035930;28;20044;-63
2022/08/02 09:33:35;;;;;;;5.30;3.88;;;;;;;26.11;33.84;99137.09;5054089;28;20041;-63
2022/08/02 09:36:04;;;;;;;5.22;3.80;;;;;;;26.23;34.17;99163.41;5036117;28;20131;-62
2022/08/02 09:38:31;;;;;;;4.85;3.95;;;;;;;26.25;34.52;99159.22;5035928;28;20041;-63
2022/08/02 09:40:57;;;;;;;13.57;4.18;;;;;;;26.26;33.96;99152.63;5036269;28;20045;-64
2022/08/02 09:43:42;;;;;;;9.55;3.33;;;;;;;26.34;33.09;99158.28;5053620;28;20037;-62
2022/08/02 09:46:13;;;;;;;7.28;3.75;;;;;;;26.34;33.39;99150.13;5053521;28;20079;-64
2022/08/02 09:48:52;;;;;;;8.80;3.53;;;;;;;26.34;33.28;99145.47;5053712;28;20041;-63
2022/08/02 09:51:38;;;;;;;5.35;3.55;;;;;;;26.32;33.17;99155.88;5053907;28;20055;-63
2022/08/02 09:54:08;;;;;;;5.20;3.67;;;;;;;26.33;33.43;99152.06;5053628;28;20036;-64
2022/08/02 09:56:45;;;;;;;5.03;3.42;;;;;;;26.47;32.90;99152.44;5053513;28;20147;-63
2022/08/02 09:59:12;;;;;;;10.85;3.90;;;;;;;26.70;32.97;99147.19;5053567;28;20052;-63
2022/08/02 10:01:38;;;;;;;6.63;3.75;;;;;;;26.76;32.73;99152.38;5035657;28;20406;-62
2022/08/02 10:04:06;;;;;;;7.97;4.13;;;;;;;26.73;33.27;99145.69;5053497;28;20037;-63
2022/08/02 10:06:32;;;;;;;4.25;3.75;;;;;;;26.57;33.26;99153.09;5051735;28;20041;-63
2022/08/02 10:08:58;;;;;;;8.63;4.15;;;;;;;26.38;33.80;99153.72;5035672;28;20494;-64
2022/08/02 10:11:26;;;;;;;6.78;3.80;;;;;;;26.26;33.99;99149.91;5052223;28;20068;-64
2022/08/02 10:13:53;;;;;;;7.38;3.83;;;;;;;26.23;34.11;99147.91;5035940;28;20080;-63
2022/08/02 10:16:23;;;;;;;7.20;3.88;;;;;;;26.37;34.04;99147.50;5035384;28;20045;-64
2022/08/02 10:18:54;;;;;;;7.53;4.10;;;;;;;26.49;33.84;99155.59;5053418;28;20048;-63
2022/08/02 10:21:28;;;;;;;8.85;4.55;;;;;;;26.62;32.72;99150.88;5051688;28;20059;-63
2022/08/02 10:24:09;;;;;;;8.15;4.05;;;;;;;26.52;33.05;99142.47;5053192;28;20140;-63
2022/08/02 10:26:38;;;;;;;7.63;4.50;;;;;;;26.46;33.60;99141.91;5052668;28;20041;-64
2022/08/02 10:29:03;;;;;;;6.15;4.35;;;;;;;26.28;32.96;99142.22;5020328;28;20037;-63
2022/08/02 10:31:36;;;;;;;7.65;4.32;;;;;;;26.05;34.20;99138.50;5049245;28;20087;-62
2022/08/02 10:34:05;;;;;;;6.57;3.97;;;;;;;25.88;34.56;99142.28;5030242;28;20041;-62
2022/08/02 10:36:32;;;;;;;8.38;4.75;;;;;;;25.77;34.64;99141.97;5032303;28;20136;-63
2022/08/02 10:39:00;;;;;;;7.70;4.30;;;;;;;25.75;35.51;99146.16;5046478;28;20624;-62
2022/08/02 10:41:44;;;;;;;6.88;4.50;;;;;;;25.91;35.30;99143.53;5014289;28;20145;-62
2022/08/02 10:44:27;;;;;;;6.78;4.13;;;;;;;25.99;35.30;99148.81;5051344;28;20053;-63
2022/08/02 10:47:26;;;;;;;12.60;4.30;;;;;;;26.12;35.04;99137.88;5051091;28;20187;-62
2022/08/02 10:49:54;;;;;;;8.65;4.20;;;;;;;26.09;34.67;99125.81;5050914;28;20170;-62
2022/08/02 10:52:26;;;;;;;8.43;3.90;;;;;;;26.08;34.80;99134.28;5033539;28;20051;-63
2022/08/02 10:54:59;;;;;;;7.82;4.10;;;;;;;25.96;34.88;99133.22;5067241;28;20047;-63
2022/08/02 10:57:33;;;;;;;5.82;3.90;;;;;;;26.02;35.03;99129.09;5017291;28;20087;-62
2022/08/02 11:00:07;;;;;;;5.68;3.78;;;;;;;26.07;35.09;99119.16;5050023;28;20037;-62
2022/08/02 11:02:40;;;;;;;7.85;4.00;;;;;;;26.15;34.14;99124.41;5058536;28;20426;-63
2022/08/02 11:05:08;;;;;;;4.47;3.50;;;;;;;26.17;34.30;99132.22;5032015;28;20143;-64
2022/08/02 11:07:37;;;;;;;7.25;3.72;;;;;;;26.16;34.11;99126.00;5049675;28;20464;-63
2022/08/02 11:10:24;;;;;;;5.82;3.92;;;;;;;26.16;33.76;99126.00;5048123;28;20041;-63
2022/08/02 11:13:09;;;;;;;9.38;3.80;;;;;;;26.08;33.96;99102.47;5048508;28;20041;-63
2022/08/02 11:15:57;;;;;;;5.55;4.05;;;;;;;26.20;33.80;99112.50;5048033;28;20228;-62
2022/08/02 11:18:48;;;;;;;5.15;3.90;;;;;;;26.21;34.06;99120.31;5063073;28;20576;-63
2022/08/02 11:21:31;;;;;;;8.25;3.90;;;;;;;26.23;33.58;99114.50;5054212;28;20076;-62
2022/08/02 11:24:27;;;;;;;8.32;3.92;;;;;;;26.29;33.30;99119.34;5032769;28;20529;-62
2022/08/02 11:26:53;;;;;;;5.32;3.97;;;;;;;26.34;32.95;99122.94;5038973;28;20053;-62
2022/08/02 11:29:19;;;;;;;8.50;3.85;;;;;;;26.37;32.93;99122.25;5048861;28;20040;-63
2022/08/02 11:31:46;;;;;;;6.53;3.75;;;;;;;26.45;33.31;99116.66;5049221;28;20045;-62
2022/08/02 11:34:12;;;;;;;6.90;3.88;;;;;;;26.47;33.08;99111.66;5047416;28;20040;-62
2022/08/02 11:36:49;;;;;;;7.10;3.65;;;;;;;26.52;33.02;99116.06;5048797;28;20041;-62
2022/08/02 11:39:18;;;;;;;3.83;3.50;;;;;;;26.63;32.76;99116.34;5049415;28;20049;-62
2022/08/02 11:41:52;;;;;;;5.82;3.65;;;;;;;26.59;32.04;99113.53;5050179;28;20505;-63
2022/08/02 11:44:18;;;;;;;4.82;3.42;;;;;;;26.59;32.28;99113.53;5049328;28;20040;-64
2022/08/02 11:46:44;;;;;;;6.90;3.70;;;;;;;26.57;32.28;99115.81;5049799;28;20056;-61
2022/08/02 11:49:16;;;;;;;6.10;3.75;;;;;;;26.56;32.47;99108.00;5050719;28;20207;-63
2022/08/02 11:51:52;;;;;;;6.10;3.90;;;;;;;26.59;32.29;99126.31;5029895;28;20041;-64
2022/08/02 11:54:35;;;;;;;3.80;3.40;;;;;;;26.69;32.35;99115.72;5049688;28;20049;-62
2022/08/02 11:57:15;;;;;;;5.75;4.22;;;;;;;26.87;31.80;99115.34;5048890;28;20053;-61